This is the latest recevied weather packets stored in our database for station/object AA4XD. If no packets are shown the sender has not sent any weather packets the latest 10 day(s).
| Time | Temp. | Humidity | Pressure | Rain* | Wind** | Luminosity | Snow |
|---|---|---|---|---|---|---|---|
| 1777579509 | 32.78° C | 51% | 1008.7 hPa | 0 mm | - | 845 W/m² | - |
| 1777579209 | 32.78° C | 50% | 1008.7 hPa | 0 mm | - | 861 W/m² | - |
| 1777578904 | 32.22° C | 51% | 1008.8 hPa | 0 mm | - | 838 W/m² | - |
| 1777578600 | 32.22° C | 51% | 1008.9 hPa | 0 mm | - | 865 W/m² | - |
| 1777578295 | 31.11° C | 54% | 1009.1 hPa | 0 mm | - | 962 W/m² | - |
| 1777577991 | 31.67° C | 52% | 1009 hPa | 0 mm | - | 517 W/m² | - |
| 1777577685 | 31.67° C | 52% | 1008.9 hPa | 0 mm | - | 375 W/m² | - |
| 1777577383 | 30.56° C | 55% | 1009.1 hPa | 0 mm | - | 803 W/m² | - |
| 1777577079 | 31.67° C | 52% | 1009 hPa | 0 mm | - | 225 W/m² | - |
| 1777576776 | 31.67° C | 53% | 1008.9 hPa | 0 mm | - | 542 W/m² | - |
| 1777576475 | 31.67° C | 51% | 1009 hPa | 0 mm | - | 534 W/m² | - |
| 1777576173 | 32.22° C | 48% | 1008.9 hPa | 0 mm | - | 451 W/m² | - |
| 1777575873 | 32.78° C | 47% | 1009 hPa | 0 mm | - | 665 W/m² | - |
| 1777575570 | 32.78° C | 49% | 1009 hPa | 0 mm | - | 915 W/m² | - |
| 1777575266 | 32.78° C | 48% | 1009 hPa | 0 mm | - | 920 W/m² | - |
| 1777574962 | 32.22° C | 50% | 1008.9 hPa | 0 mm | - | 965 W/m² | - |
| 1777574658 | 32.22° C | 49% | 1009.1 hPa | 0 mm | - | 462 W/m² | - |
| 1777574355 | 32.78° C | 49% | 1009.2 hPa | 0 mm | - | 289 W/m² | - |
| 1777574050 | 32.78° C | 47% | 1009.2 hPa | 0 mm | - | 1122 W/m² | - |
| 1777573745 | 31.11° C | 53% | 1009.2 hPa | 0 mm | - | 1124 W/m² | - |
| 1777573442 | 31.67° C | 54% | 1009.4 hPa | 0 mm | - | 645 W/m² | - |
| 1777573137 | 31.67° C | 53% | 1009.6 hPa | 0 mm | - | 1118 W/m² | - |
| 1777572834 | 32.78° C | 51% | 1009.4 hPa | 0 mm | - | 974 W/m² | - |
| 1777572530 | 32.78° C | 52% | 1009.5 hPa | 0 mm | - | 1039 W/m² | - |
| 1777572225 | 32.22° C | 54% | 1009.5 hPa | 0 mm | - | 976 W/m² | - |
* Rain latest hour (hover to see other rain measurements)
** Current wind speed in m/s (hover to see current wind gust speed)